sensor_id;sensor_type;location;lat;lon;timestamp;pressure;altitude;pressure_sealevel;temperature;humidity
66880;BME280;53789;51.392;10.234;2022-09-03T00:00:11;98195.56;;;14.50;50.21
66880;BME280;53789;51.392;10.234;2022-09-03T00:00:35;98196.38;;;14.50;49.50
66880;BME280;53789;51.392;10.234;2022-09-03T00:01:03;98191.97;;;14.49;49.80
66880;BME280;53789;51.392;10.234;2022-09-03T00:01:36;98190.00;;;14.50;49.80
66880;BME280;53789;51.392;10.234;2022-09-03T00:02:52;98184.47;;;14.50;50.06
66880;BME280;53789;51.392;10.234;2022-09-03T00:04:01;98191.97;;;14.49;49.75
66880;BME280;53789;51.392;10.234;2022-09-03T00:06:42;98185.66;;;14.49;49.87
66880;BME280;53789;51.392;10.234;2022-09-03T00:07:14;98181.72;;;14.50;49.93
66880;BME280;53789;51.392;10.234;2022-09-03T00:07:42;98183.69;;;14.49;50.25
66880;BME280;53789;51.392;10.234;2022-09-03T00:08:24;98184.81;;;14.48;49.61
66880;BME280;53789;51.392;10.234;2022-09-03T00:09:40;98184.81;;;14.48;50.95
66880;BME280;53789;51.392;10.234;2022-09-03T00:10:08;98189.56;;;14.48;49.82
66880;BME280;53789;51.392;10.234;2022-09-03T00:10:42;98184.81;;;14.48;50.19
66880;BME280;53789;51.392;10.234;2022-09-03T00:11:12;98184.81;;;14.48;50.28
66880;BME280;53789;51.392;10.234;2022-09-03T00:12:09;98186.13;;;14.51;50.97
66880;BME280;53789;51.392;10.234;2022-09-03T00:12:39;98188.53;;;14.52;50.35
66880;BME280;53789;51.392;10.234;2022-09-03T00:13:04;98183.00;;;14.52;50.32
66880;BME280;53789;51.392;10.234;2022-09-03T00:13:37;98188.88;;;14.51;50.64
66880;BME280;53789;51.392;10.234;2022-09-03T00:14:06;98187.75;;;14.52;50.36
66880;BME280;53789;51.392;10.234;2022-09-03T00:14:37;98184.97;;;14.52;50.11
66880;BME280;53789;51.392;10.234;2022-09-03T00:15:08;98191.31;;;14.52;49.98
66880;BME280;53789;51.392;10.234;2022-09-03T00:15:33;98197.66;;;14.53;50.02
66880;BME280;53789;51.392;10.234;2022-09-03T00:15:56;98193.28;;;14.52;49.75
66880;BME280;53789;51.392;10.234;2022-09-03T00:16:20;98192.44;;;14.51;50.11
66880;BME280;53789;51.392;10.234;2022-09-03T00:17:24;98189.22;;;14.49;49.95
66880;BME280;53789;51.392;10.234;2022-09-03T00:17:58;98187.13;;;14.46;49.78
66880;BME280;53789;51.392;10.234;2022-09-03T00:18:25;98183.56;;;14.45;50.20
66880;BME280;53789;51.392;10.234;2022-09-03T00:18:53;98186.63;;;14.44;50.24
66880;BME280;53789;51.392;10.234;2022-09-03T00:19:19;98189.38;;;14.44;50.27
66880;BME280;53789;51.392;10.234;2022-09-03T00:20:34;98184.06;;;14.39;50.42
66880;BME280;53789;51.392;10.234;2022-09-03T00:21:16;98189.13;;;14.37;50.59
66880;BME280;53789;51.392;10.234;2022-09-03T00:21:48;98177.22;;;14.36;50.48
66880;BME280;53789;51.392;10.234;2022-09-03T00:22:19;98184.25;;;14.34;50.68
66880;BME280;53789;51.392;10.234;2022-09-03T00:22:47;98177.09;;;14.33;50.54
66880;BME280;53789;51.392;10.234;2022-09-03T00:23:21;98177.75;;;14.30;50.90
66880;BME280;53789;51.392;10.234;2022-09-03T00:23:45;98184.91;;;14.31;51.06
66880;BME280;53789;51.392;10.234;2022-09-03T00:24:12;98183.28;;;14.30;50.35
66880;BME280;53789;51.392;10.234;2022-09-03T00:24:38;98178.56;;;14.30;50.94
66880;BME280;53789;51.392;10.234;2022-09-03T00:25:04;98178.56;;;14.30;50.72
66880;BME280;53789;51.392;10.234;2022-09-03T00:26:34;98187.66;;;14.31;50.82
66880;BME280;53789;51.392;10.234;2022-09-03T00:27:00;98184.91;;;14.31;50.87
66880;BME280;53789;51.392;10.234;2022-09-03T00:27:26;98192.88;;;14.32;50.61
66880;BME280;53789;51.392;10.234;2022-09-03T00:27:52;98186.06;;;14.30;50.63
66880;BME280;53789;51.392;10.234;2022-09-03T00:28:24;98186.06;;;14.30;51.09
66880;BME280;53789;51.392;10.234;2022-09-03T00:28:55;98182.13;;;14.31;51.32
66880;BME280;53789;51.392;10.234;2022-09-03T00:29:21;98182.81;;;14.27;51.04
66880;BME280;53789;51.392;10.234;2022-09-03T00:30:24;98183.97;;;14.26;50.61
66880;BME280;53789;51.392;10.234;2022-09-03T00:30:51;98189.84;;;14.25;51.21
66880;BME280;53789;51.392;10.234;2022-09-03T00:31:28;98185.44;;;14.24;51.61
66880;BME280;53789;51.392;10.234;2022-09-03T00:31:53;98186.91;;;14.21;51.23
66880;BME280;53789;51.392;10.234;2022-09-03T00:32:42;98190.50;;;14.22;51.19
66880;BME280;53789;51.392;10.234;2022-09-03T00:33:10;98188.03;;;14.20;50.93
66880;BME280;53789;51.392;10.234;2022-09-03T00:33:32;98183.66;;;14.19;51.24
66880;BME280;53789;51.392;10.234;2022-09-03T00:34:01;98176.50;;;14.18;51.20
66880;BME280;53789;51.392;10.234;2022-09-03T00:34:33;98190.34;;;14.18;50.91
66880;BME280;53789;51.392;10.234;2022-09-03T00:35:01;98191.47;;;14.17;51.90
66880;BME280;53789;51.392;10.234;2022-09-03T00:35:26;98185.59;;;14.19;51.01
66880;BME280;53789;51.392;10.234;2022-09-03T00:36:22;98184.34;;;14.16;51.51
66880;BME280;53789;51.392;10.234;2022-09-03T00:36:45;98177.97;;;14.16;51.02
66880;BME280;53789;51.392;10.234;2022-09-03T00:37:09;98182.38;;;14.17;51.10
66880;BME280;53789;51.392;10.234;2022-09-03T00:37:30;98182.38;;;14.17;51.41
66880;BME280;53789;51.392;10.234;2022-09-03T00:37:52;98180.41;;;14.17;50.72
66880;BME280;53789;51.392;10.234;2022-09-03T00:38:13;98185.94;;;14.17;51.43
66880;BME280;53789;51.392;10.234;2022-09-03T00:38:36;98189.88;;;14.16;51.39
66880;BME280;53789;51.392;10.234;2022-09-03T00:38:57;98184.34;;;14.16;51.31
66880;BME280;53789;51.392;10.234;2022-09-03T00:39:21;98183.16;;;14.17;51.17
66880;BME280;53789;51.392;10.234;2022-09-03T00:39:42;98182.38;;;14.17;51.47
66880;BME280;53789;51.392;10.234;2022-09-03T00:40:04;98181.56;;;14.16;51.27
66880;BME280;53789;51.392;10.234;2022-09-03T00:43:11;98176.69;;;14.13;51.06
66880;BME280;53789;51.392;10.234;2022-09-03T00:44:19;98179.47;;;14.13;51.72
66880;BME280;53789;51.392;10.234;2022-09-03T00:45:42;98180.13;;;14.10;51.64
66880;BME280;53789;51.392;10.234;2022-09-03T00:49:26;98183.41;;;14.03;51.55
66880;BME280;53789;51.392;10.234;2022-09-03T00:50:08;98175.75;;;14.00;52.23
66880;BME280;53789;51.392;10.234;2022-09-03T00:51:17;98185.84;;;13.96;52.32
66880;BME280;53789;51.392;10.234;2022-09-03T00:52:32;98184.56;;;13.93;52.01
66880;BME280;53789;51.392;10.234;2022-09-03T00:54:40;98181.50;;;13.86;52.23
66880;BME280;53789;51.392;10.234;2022-09-03T00:56:01;98179.06;;;13.85;51.96
66880;BME280;53789;51.392;10.234;2022-09-03T00:57:22;98177.13;;;13.85;52.51
66880;BME280;53789;51.392;10.234;2022-09-03T00:57:33;98181.34;;;13.83;52.88
66880;BME280;53789;51.392;10.234;2022-09-03T01:00:12;98174.84;;;13.79;52.73
66880;BME280;53789;51.392;10.234;2022-09-03T01:00:32;98178.78;;;13.78;52.59
66880;BME280;53789;51.392;10.234;2022-09-03T01:00:53;98173.25;;;13.78;53.07
66880;BME280;53789;51.392;10.234;2022-09-03T01:01:19;98174.38;;;13.77;52.83
66880;BME280;53789;51.392;10.234;2022-09-03T01:01:48;98176.34;;;13.76;52.97
66880;BME280;53789;51.392;10.234;2022-09-03T01:03:00;98174.69;;;13.75;52.55
66880;BME280;53789;51.392;10.234;2022-09-03T01:03:49;98169.84;;;13.72;53.35
66880;BME280;53789;51.392;10.234;2022-09-03T01:05:07;98175.38;;;13.72;53.42
66880;BME280;53789;51.392;10.234;2022-09-03T01:07:49;98170.16;;;13.70;52.83
66880;BME280;53789;51.392;10.234;2022-09-03T01:09:44;98178.78;;;13.69;53.63
66880;BME280;53789;51.392;10.234;2022-09-03T01:10:15;98176.03;;;13.69;53.56
66880;BME280;53789;51.392;10.234;2022-09-03T01:12:40;98173.59;;;13.67;52.99
66880;BME280;53789;51.392;10.234;2022-09-03T01:13:56;98179.13;;;13.67;53.42
66880;BME280;53789;51.392;10.234;2022-09-03T01:15:07;98180.25;;;13.66;52.94
66880;BME280;53789;51.392;10.234;2022-09-03T01:17:03;98177.81;;;13.65;53.46
66880;BME280;53789;51.392;10.234;2022-09-03T01:17:45;98183.81;;;13.67;53.46
66880;BME280;53789;51.392;10.234;2022-09-03T01:18:18;98179.44;;;13.66;53.29
66880;BME280;53789;51.392;10.234;2022-09-03T01:20:49;98186.75;;;13.62;53.63
66880;BME280;53789;51.392;10.234;2022-09-03T01:22:16;98183.47;;;13.59;53.61
66880;BME280;53789;51.392;10.234;2022-09-03T01:24:35;98195.50;;;13.55;53.44
66880;BME280;53789;51.392;10.234;2022-09-03T01:26:01;98183.66;;;13.54;53.69
66880;BME280;53789;51.392;10.234;2022-09-03T01:27:05;98184.78;;;13.53;54.09
66880;BME280;53789;51.392;10.234;2022-09-03T01:30:18;98177.16;;;13.50;53.96
66880;BME280;53789;51.392;10.234;2022-09-03T01:30:44;98181.06;;;13.49;53.74
66880;BME280;53789;51.392;10.234;2022-09-03T01:32:50;98184.97;;;13.48;54.15
66880;BME280;53789;51.392;10.234;2022-09-03T01:33:28;98187.22;;;13.46;54.29
66880;BME280;53789;51.392;10.234;2022-09-03T01:35:12;98187.09;;;13.43;54.58
66880;BME280;53789;51.392;10.234;2022-09-03T01:35:46;98183.53;;;13.42;54.59
66880;BME280;53789;51.392;10.234;2022-09-03T01:37:18;98190.50;;;13.39;54.34
66880;BME280;53789;51.392;10.234;2022-09-03T01:38:49;98181.75;;;13.37;54.29
66880;BME280;53789;51.392;10.234;2022-09-03T01:39:39;98186.09;;;13.38;54.31
66880;BME280;53789;51.392;10.234;2022-09-03T01:42:01;98183.19;;;13.35;54.58
66880;BME280;53789;51.392;10.234;2022-09-03T01:43:46;98182.03;;;13.36;54.70
66880;BME280;53789;51.392;10.234;2022-09-03T01:44:29;98184.78;;;13.36;54.57
66880;BME280;53789;51.392;10.234;2022-09-03T01:46:11;98184.50;;;13.37;54.01
66880;BME280;53789;51.392;10.234;2022-09-03T01:46:40;98186.44;;;13.37;54.70
66880;BME280;53789;51.392;10.234;2022-09-03T01:50:50;98186.59;;;13.40;54.84
66880;BME280;53789;51.392;10.234;2022-09-03T01:51:22;98193.72;;;13.41;54.71
66880;BME280;53789;51.392;10.234;2022-09-03T01:51:43;98191.31;;;13.40;54.58
66880;BME280;53789;51.392;10.234;2022-09-03T01:52:13;98188.53;;;13.40;54.24
66880;BME280;53789;51.392;10.234;2022-09-03T01:55:32;98196.03;;;13.39;54.68
66880;BME280;53789;51.392;10.234;2022-09-03T02:00:26;98189.38;;;13.40;54.51
66880;BME280;53789;51.392;10.234;2022-09-03T02:00:54;98183.00;;;13.40;55.03
66880;BME280;53789;51.392;10.234;2022-09-03T02:01:31;98187.41;;;13.41;54.87
66880;BME280;53789;51.392;10.234;2022-09-03T02:02:02;98184.66;;;13.41;54.69
66880;BME280;53789;51.392;10.234;2022-09-03T02:02:26;98181.88;;;13.41;54.83
66880;BME280;53789;51.392;10.234;2022-09-03T02:02:50;98181.88;;;13.41;54.97
66880;BME280;53789;51.392;10.234;2022-09-03T02:03:12;98189.84;;;13.43;54.68
66880;BME280;53789;51.392;10.234;2022-09-03T02:03:38;98187.41;;;13.41;54.78
66880;BME280;53789;51.392;10.234;2022-09-03T02:04:00;98183.84;;;13.40;54.72
66880;BME280;53789;51.392;10.234;2022-09-03T02:04:24;98183.00;;;13.40;55.15
66880;BME280;53789;51.392;10.234;2022-09-03T02:05:19;98181.41;;;13.39;54.52
66880;BME280;53789;51.392;10.234;2022-09-03T02:05:39;98184.19;;;13.39;54.76
66880;BME280;53789;51.392;10.234;2022-09-03T02:06:00;98182.53;;;13.38;54.93
66880;BME280;53789;51.392;10.234;2022-09-03T02:06:20;98178.66;;;13.39;54.19
66880;BME280;53789;51.392;10.234;2022-09-03T02:06:41;98185.31;;;13.38;54.76
66880;BME280;53789;51.392;10.234;2022-09-03T02:07:02;98182.53;;;13.38;54.52
66880;BME280;53789;51.392;10.234;2022-09-03T02:07:27;98177.00;;;13.38;54.58
66880;BME280;53789;51.392;10.234;2022-09-03T02:08:16;98180.56;;;13.38;54.88
66880;BME280;53789;51.392;10.234;2022-09-03T02:08:37;98183.34;;;13.38;55.20
66880;BME280;53789;51.392;10.234;2022-09-03T02:08:58;98186.44;;;13.37;54.81
66880;BME280;53789;51.392;10.234;2022-09-03T02:09:19;98180.56;;;13.38;54.62
66880;BME280;53789;51.392;10.234;2022-09-03T02:09:40;98182.53;;;13.38;54.88
66880;BME280;53789;51.392;10.234;2022-09-03T02:10:03;98184.97;;;13.39;55.21
66880;BME280;53789;51.392;10.234;2022-09-03T02:10:32;98181.88;;;13.41;54.72
66880;BME280;53789;51.392;10.234;2022-09-03T02:10:56;98188.22;;;13.41;54.81
66880;BME280;53789;51.392;10.234;2022-09-03T02:11:17;98179.44;;;13.39;54.63
66880;BME280;53789;51.392;10.234;2022-09-03T02:11:37;98177.50;;;13.40;54.66
66880;BME280;53789;51.392;10.234;2022-09-03T02:12:07;98188.53;;;13.40;54.70
66880;BME280;53789;51.392;10.234;2022-09-03T02:12:31;98186.94;;;13.39;55.14
66880;BME280;53789;51.392;10.234;2022-09-03T02:12:57;98195.22;;;13.39;54.83
66880;BME280;53789;51.392;10.234;2022-09-03T02:13:24;98186.94;;;13.39;54.77
66880;BME280;53789;51.392;10.234;2022-09-03T02:13:54;98188.88;;;13.38;54.62
66880;BME280;53789;51.392;10.234;2022-09-03T02:14:15;98188.88;;;13.38;54.87
66880;BME280;53789;51.392;10.234;2022-09-03T02:14:36;98187.25;;;13.37;54.73
66880;BME280;53789;51.392;10.234;2022-09-03T02:14:56;98189.69;;;13.39;55.08
66880;BME280;53789;51.392;10.234;2022-09-03T02:15:20;98186.09;;;13.38;55.20
66880;BME280;53789;51.392;10.234;2022-09-03T02:15:44;98183.66;;;13.37;55.02
66880;BME280;53789;51.392;10.234;2022-09-03T02:16:14;98184.78;;;13.36;54.91
66880;BME280;53789;51.392;10.234;2022-09-03T02:16:36;98189.19;;;13.37;54.96
66880;BME280;53789;51.392;10.234;2022-09-03T02:16:59;98184.78;;;13.36;54.65
66880;BME280;53789;51.392;10.234;2022-09-03T02:17:21;98188.72;;;13.35;55.18
66880;BME280;53789;51.392;10.234;2022-09-03T02:17:43;98189.84;;;13.34;55.23
66880;BME280;53789;51.392;10.234;2022-09-03T02:18:12;98189.84;;;13.34;55.11
66880;BME280;53789;51.392;10.234;2022-09-03T02:18:44;98188.53;;;13.31;54.86
66880;BME280;53789;51.392;10.234;2022-09-03T02:19:12;98184.97;;;13.31;54.86
66880;BME280;53789;51.392;10.234;2022-09-03T02:19:35;98179.44;;;13.31;55.07
66880;BME280;53789;51.392;10.234;2022-09-03T02:19:56;98191.31;;;13.31;55.35
66880;BME280;53789;51.392;10.234;2022-09-03T02:20:23;98179.78;;;13.29;55.26
66880;BME280;53789;51.392;10.234;2022-09-03T02:20:46;98188.53;;;13.31;54.90
66880;BME280;53789;51.392;10.234;2022-09-03T02:21:08;98186.09;;;13.30;55.19
66880;BME280;53789;51.392;10.234;2022-09-03T02:21:34;98189.69;;;13.30;54.93
66880;BME280;53789;51.392;10.234;2022-09-03T02:21:56;98182.22;;;13.31;55.01
66880;BME280;53789;51.392;10.234;2022-09-03T02:22:17;98184.97;;;13.31;54.79
66880;BME280;53789;51.392;10.234;2022-09-03T02:22:39;98185.31;;;13.29;55.19
66880;BME280;53789;51.392;10.234;2022-09-03T02:23:02;98177.34;;;13.28;55.11
66880;BME280;53789;51.392;10.234;2022-09-03T02:23:23;98184.50;;;13.29;54.86
66880;BME280;53789;51.392;10.234;2022-09-03T02:23:45;98181.75;;;13.29;55.19
66880;BME280;53789;51.392;10.234;2022-09-03T02:24:07;98178.16;;;13.28;55.20
66880;BME280;53789;51.392;10.234;2022-09-03T02:24:28;98184.84;;;13.27;55.36
66880;BME280;53789;51.392;10.234;2022-09-03T02:24:48;98180.44;;;13.26;55.44
66880;BME280;53789;51.392;10.234;2022-09-03T02:25:08;98179.63;;;13.26;55.02
66880;BME280;53789;51.392;10.234;2022-09-03T02:25:37;98181.22;;;13.27;55.03
66880;BME280;53789;51.392;10.234;2022-09-03T02:26:01;98176.88;;;13.26;55.27
66880;BME280;53789;51.392;10.234;2022-09-03T02:26:23;98183.19;;;13.26;55.18
66880;BME280;53789;51.392;10.234;2022-09-03T02:26:44;98179.63;;;13.26;55.06
66880;BME280;53789;51.392;10.234;2022-09-03T02:27:05;98183.19;;;13.26;55.42
66880;BME280;53789;51.392;10.234;2022-09-03T02:27:26;98181.22;;;13.27;55.45
66880;BME280;53789;51.392;10.234;2022-09-03T02:27:48;98175.72;;;13.27;55.42
66880;BME280;53789;51.392;10.234;2022-09-03T02:28:10;98185.16;;;13.26;55.50
66880;BME280;53789;51.392;10.234;2022-09-03T02:28:31;98183.53;;;13.25;55.50
66880;BME280;53789;51.392;10.234;2022-09-03T02:28:54;98186.28;;;13.25;55.41
66880;BME280;53789;51.392;10.234;2022-09-03T02:29:16;98179.63;;;13.26;54.82
66880;BME280;53789;51.392;10.234;2022-09-03T02:29:36;98181.56;;;13.25;55.37
66880;BME280;53789;51.392;10.234;2022-09-03T02:29:59;98180.44;;;13.26;55.09
66880;BME280;53789;51.392;10.234;2022-09-03T02:30:19;98182.41;;;13.26;55.16
66880;BME280;53789;51.392;10.234;2022-09-03T02:30:40;98177.69;;;13.26;55.18
66880;BME280;53789;51.392;10.234;2022-09-03T02:31:01;98178.81;;;13.25;55.42
66880;BME280;53789;51.392;10.234;2022-09-03T02:31:21;98185.16;;;13.26;55.59
66880;BME280;53789;51.392;10.234;2022-09-03T02:31:43;98177.34;;;13.28;56.26
66880;BME280;53789;51.392;10.234;2022-09-03T02:32:03;98177.34;;;13.28;55.74
66880;BME280;53789;51.392;10.234;2022-09-03T02:32:23;98184.84;;;13.27;55.30
66880;BME280;53789;51.392;10.234;2022-09-03T02:32:44;98191.97;;;13.28;55.55
66880;BME280;53789;51.392;10.234;2022-09-03T02:33:04;98188.41;;;13.28;55.54
66880;BME280;53789;51.392;10.234;2022-09-03T02:33:25;98188.41;;;13.28;55.19
66880;BME280;53789;51.392;10.234;2022-09-03T02:33:48;98188.41;;;13.28;55.63
66880;BME280;53789;51.392;10.234;2022-09-03T02:34:09;98195.56;;;13.29;55.67
66880;BME280;53789;51.392;10.234;2022-09-03T02:34:29;98188.41;;;13.28;55.34
66880;BME280;53789;51.392;10.234;2022-09-03T02:34:50;98193.91;;;13.28;55.54
66880;BME280;53789;51.392;10.234;2022-09-03T02:35:10;98193.91;;;13.28;55.25
66880;BME280;53789;51.392;10.234;2022-09-03T02:35:31;98185.97;;;13.26;55.15
66880;BME280;53789;51.392;10.234;2022-09-03T02:35:52;98186.75;;;13.27;55.08
66880;BME280;53789;51.392;10.234;2022-09-03T02:36:16;98193.13;;;13.27;55.44
66880;BME280;53789;51.392;10.234;2022-09-03T02:36:43;98193.13;;;13.27;55.73
66880;BME280;53789;51.392;10.234;2022-09-03T02:37:14;98194.25;;;13.26;55.75
66880;BME280;53789;51.392;10.234;2022-09-03T02:37:35;98197.81;;;13.27;55.14
66880;BME280;53789;51.392;10.234;2022-09-03T02:37:55;98193.91;;;13.28;55.18
66880;BME280;53789;51.392;10.234;2022-09-03T02:38:23;98192.78;;;13.29;55.94
66880;BME280;53789;51.392;10.234;2022-09-03T02:38:45;98195.56;;;13.29;55.57
66880;BME280;53789;51.392;10.234;2022-09-03T02:39:06;98191.16;;;13.28;55.06
66880;BME280;53789;51.392;10.234;2022-09-03T02:39:26;98191.97;;;13.28;55.18
66880;BME280;53789;51.392;10.234;2022-09-03T02:39:47;98198.63;;;13.27;55.58
66880;BME280;53789;51.392;10.234;2022-09-03T02:40:08;98196.69;;;13.28;55.46
66880;BME280;53789;51.392;10.234;2022-09-03T02:40:28;98191.16;;;13.28;55.34
66880;BME280;53789;51.392;10.234;2022-09-03T02:40:48;98189.19;;;13.28;55.51
66880;BME280;53789;51.392;10.234;2022-09-03T02:41:09;98195.56;;;13.29;55.50
66880;BME280;53789;51.392;10.234;2022-09-03T02:41:30;98199.91;;;13.30;55.77
66880;BME280;53789;51.392;10.234;2022-09-03T02:42:01;98193.59;;;13.29;55.54
66880;BME280;53789;51.392;10.234;2022-09-03T02:42:21;98196.81;;;13.31;55.58
66880;BME280;53789;51.392;10.234;2022-09-03T02:42:43;98194.06;;;13.31;55.40
66880;BME280;53789;51.392;10.234;2022-09-03T02:43:11;98198.78;;;13.31;55.24
66880;BME280;53789;51.392;10.234;2022-09-03T02:43:43;98194.91;;;13.32;55.43
66880;BME280;53789;51.392;10.234;2022-09-03T02:44:12;98194.91;;;13.32;55.39
66880;BME280;53789;51.392;10.234;2022-09-03T02:44:40;98192.59;;;13.34;55.51
66880;BME280;53789;51.392;10.234;2022-09-03T02:45:50;98195.03;;;13.35;55.92
66880;BME280;53789;51.392;10.234;2022-09-03T02:46:19;98195.84;;;13.36;55.25
66880;BME280;53789;51.392;10.234;2022-09-03T02:46:45;98193.41;;;13.34;55.31
66880;BME280;53789;51.392;10.234;2022-09-03T02:47:07;98193.09;;;13.36;55.15
66880;BME280;53789;51.392;10.234;2022-09-03T02:47:30;98189.19;;;13.37;55.07
66880;BME280;53789;51.392;10.234;2022-09-03T02:47:55;98191.63;;;13.38;56.13
66880;BME280;53789;51.392;10.234;2022-09-03T02:48:19;98199.91;;;13.38;55.61
66880;BME280;53789;51.392;10.234;2022-09-03T02:48:41;98197.97;;;13.39;56.84
66880;BME280;53789;51.392;10.234;2022-09-03T02:49:02;98194.06;;;13.40;56.43
66880;BME280;53789;51.392;10.234;2022-09-03T02:49:22;98196.81;;;13.40;56.17
66880;BME280;53789;51.392;10.234;2022-09-03T02:49:42;98192.13;;;13.40;55.81
66880;BME280;53789;51.392;10.234;2022-09-03T02:50:03;98194.91;;;13.40;55.48
66880;BME280;53789;51.392;10.234;2022-09-03T02:50:24;98201.22;;;13.41;55.30
66880;BME280;53789;51.392;10.234;2022-09-03T02:50:45;98196.50;;;13.41;55.17
66880;BME280;53789;51.392;10.234;2022-09-03T02:51:05;98197.34;;;13.42;56.43
66880;BME280;53789;51.392;10.234;2022-09-03T02:51:25;98196.16;;;13.43;56.00
66880;BME280;53789;51.392;10.234;2022-09-03T02:51:46;98187.88;;;13.43;56.25
66880;BME280;53789;51.392;10.234;2022-09-03T02:52:09;98200.56;;;13.44;55.92
66880;BME280;53789;51.392;10.234;2022-09-03T02:52:29;98199.44;;;13.45;56.30
66880;BME280;53789;51.392;10.234;2022-09-03T02:52:50;98196.66;;;13.45;55.86
66880;BME280;53789;51.392;10.234;2022-09-03T02:53:11;98200.25;;;13.46;56.04
66880;BME280;53789;51.392;10.234;2022-09-03T02:53:31;98195.50;;;13.46;55.73
66880;BME280;53789;51.392;10.234;2022-09-03T02:53:51;98196.34;;;13.47;55.81
66880;BME280;53789;51.392;10.234;2022-09-03T02:54:12;98193.59;;;13.47;56.78
66880;BME280;53789;51.392;10.234;2022-09-03T02:54:32;98197.94;;;13.48;55.33
66880;BME280;53789;51.392;10.234;2022-09-03T02:54:53;98198.78;;;13.48;55.99
66880;BME280;53789;51.392;10.234;2022-09-03T02:55:13;98190.50;;;13.48;55.13
66880;BME280;53789;51.392;10.234;2022-09-03T02:55:34;98193.25;;;13.48;55.74
66880;BME280;53789;51.392;10.234;2022-09-03T02:56:00;98190.50;;;13.48;55.01
66880;BME280;53789;51.392;10.234;2022-09-03T02:56:21;98197.66;;;13.49;55.38
66880;BME280;53789;51.392;10.234;2022-09-03T02:56:41;98190.50;;;13.48;54.91
66880;BME280;53789;51.392;10.234;2022-09-03T02:57:02;98196.03;;;13.48;55.72
66880;BME280;53789;51.392;10.234;2022-09-03T02:57:22;98189.66;;;13.48;55.33
66880;BME280;53789;51.392;10.234;2022-09-03T02:57:42;98194.38;;;13.47;55.45
66880;BME280;53789;51.392;10.234;2022-09-03T02:58:03;98190.81;;;13.47;55.63
66880;BME280;53789;51.392;10.234;2022-09-03T02:58:23;98191.63;;;13.47;55.36
66880;BME280;53789;51.392;10.234;2022-09-03T02:58:43;98203.81;;;13.46;55.27
66880;BME280;53789;51.392;10.234;2022-09-03T02:59:06;98193.91;;;13.45;55.14
66880;BME280;53789;51.392;10.234;2022-09-03T02:59:26;98192.28;;;13.44;55.56
66880;BME280;53789;51.392;10.234;2022-09-03T02:59:47;98195.03;;;13.44;55.21
66880;BME280;53789;51.392;10.234;2022-09-03T03:00:08;98191.81;;;13.42;55.51
66880;BME280;53789;51.392;10.234;2022-09-03T03:00:28;98183.53;;;13.42;55.80
66880;BME280;53789;51.392;10.234;2022-09-03T03:00:48;98189.03;;;13.42;55.28
66880;BME280;53789;51.392;10.234;2022-09-03T03:01:09;98189.84;;;13.43;55.72
66880;BME280;53789;51.392;10.234;2022-09-03T03:01:29;98195.69;;;13.41;55.82
66880;BME280;53789;51.392;10.234;2022-09-03T03:01:50;98201.22;;;13.41;55.84
66880;BME280;53789;51.392;10.234;2022-09-03T03:02:12;98192.13;;;13.40;55.12
66880;BME280;53789;51.392;10.234;2022-09-03T03:02:33;98192.13;;;13.40;55.03
66880;BME280;53789;51.392;10.234;2022-09-03T03:02:56;98195.69;;;13.41;55.65
66880;BME280;53789;51.392;10.234;2022-09-03T03:03:16;98195.69;;;13.41;55.41
66880;BME280;53789;51.392;10.234;2022-09-03T03:03:36;98189.69;;;13.39;55.49
66880;BME280;53789;51.392;10.234;2022-09-03T03:03:57;98190.50;;;13.39;55.68
66880;BME280;53789;51.392;10.234;2022-09-03T03:04:17;98189.69;;;13.39;55.74
66880;BME280;53789;51.392;10.234;2022-09-03T03:04:38;98197.16;;;13.38;56.00
66880;BME280;53789;51.392;10.234;2022-09-03T03:04:59;98193.59;;;13.38;55.74
66880;BME280;53789;51.392;10.234;2022-09-03T03:05:25;98187.25;;;13.37;56.16
66880;BME280;53789;51.392;10.234;2022-09-03T03:05:55;98187.25;;;13.37;55.66
66880;BME280;53789;51.392;10.234;2022-09-03T03:06:17;98190.03;;;13.37;55.36
66880;BME280;53789;51.392;10.234;2022-09-03T03:06:38;98190.81;;;13.38;55.67
66880;BME280;53789;51.392;10.234;2022-09-03T03:06:58;98187.25;;;13.37;55.48
66880;BME280;53789;51.392;10.234;2022-09-03T03:07:18;98193.59;;;13.38;56.40
66880;BME280;53789;51.392;10.234;2022-09-03T03:07:39;98190.03;;;13.37;55.05
66880;BME280;53789;51.392;10.234;2022-09-03T03:08:00;98183.19;;;13.35;55.00
66880;BME280;53789;51.392;10.234;2022-09-03T03:08:25;98189.53;;;13.35;55.10
66880;BME280;53789;51.392;10.234;2022-09-03T03:08:47;98190.31;;;13.36;55.64
66880;BME280;53789;51.392;10.234;2022-09-03T03:09:07;98192.28;;;13.35;55.38
66880;BME280;53789;51.392;10.234;2022-09-03T03:09:28;98190.31;;;13.36;55.79
66880;BME280;53789;51.392;10.234;2022-09-03T03:09:48;98186.75;;;13.35;55.61
66880;BME280;53789;51.392;10.234;2022-09-03T03:10:08;98191.47;;;13.35;55.45
66880;BME280;53789;51.392;10.234;2022-09-03T03:10:29;98194.25;;;13.35;55.21
66880;BME280;53789;51.392;10.234;2022-09-03T03:10:52;98193.41;;;13.34;55.17
66880;BME280;53789;51.392;10.234;2022-09-03T03:11:13;98184.00;;;13.35;55.58
66880;BME280;53789;51.392;10.234;2022-09-03T03:11:33;98188.72;;;13.35;55.94
66880;BME280;53789;51.392;10.234;2022-09-03T03:11:54;98194.25;;;13.35;56.00
66880;BME280;53789;51.392;10.234;2022-09-03T03:12:14;98184.31;;;13.34;55.70
66880;BME280;53789;51.392;10.234;2022-09-03T03:12:34;98191.47;;;13.35;56.19
66880;BME280;53789;51.392;10.234;2022-09-03T03:12:55;98187.88;;;13.34;55.78
66880;BME280;53789;51.392;10.234;2022-09-03T03:13:15;98188.22;;;13.33;55.20
66880;BME280;53789;51.392;10.234;2022-09-03T03:13:36;98189.84;;;13.34;55.85
66880;BME280;53789;51.392;10.234;2022-09-03T03:13:56;98186.28;;;13.33;55.55
66880;BME280;53789;51.392;10.234;2022-09-03T03:14:17;98187.41;;;13.32;55.52